Tiempo atmosférico en la estación meteorológica de El Bosque, Cádiz (295 m.)



Fecha
DESCASC
Temp. máxima en grados centígrados (hora)
DESCASC
Temp. mínima en grados centígrados (hora)
DESCASC
Temp. media en grados centígrados
DESCASC
Racha de viento máxima en m/sg (hora)
DESCASC
Velocidad máxima media en intervalos de 10 minutos(hora)
DESCASC
Precipitaciones diarias en mm
DESCASC
Precipitaciones de 00:00 a 06:00 en mm
DESCASC
Precipitaciones de 06:00 a 12:00 en mm
DESCASC
Precipitaciones de 12:00 a 18:00 en mm
DESCASC
Precipitaciones de 18:00 a 24:00 en mm
DESCASC
10-05-2019 28.5 (17:40) 11.1 (00:00) 19.8 7.22 (18:00) 3.89 (15:20) 0 0 0 0 0
23-05-2019 30.8 (17:30) 12.5 (07:20) 21.6 7.22 (15:40) 3.61 (19:00) 0 0 0 0 0
22-05-2019 28.8 (15:20) 11.5 (07:00) 20.1 7.22 (16:30) 3.89 (16:40) 0 0 0 0 0
21-05-2019 26.4 (16:20) 9.7 (07:00) 18 8.33 (17:00) 4.17 (18:30) 0 0 0 0 0
20-05-2019 25.7 (17:00) 11.4 (06:40) 18.6 8.89 (17:50) 5 (17:50) 0 0 0 0 0
19-05-2019 22.7 (16:30) 10.4 (00:00) 16.6 10.56 (16:50) 5 (16:20) 0 0 0 0 0
18-05-2019 21.7 (17:10) 8.8 (00:00) 15.3 10.83 (18:30) 5.56 (18:30) 0 0 0 0 0
17-05-2019 22.2 (18:00) 9.2 (00:00) 15.7 10 (12:30) 5.56 (19:20) 0 0 0 0 0
16-05-2019 28.1 (16:10) 13.5 (00:00) 20.8 8.89 (14:50) 5.28 (15:10) 0 0 0 0 0
15-05-2019 32.5 (17:50) 11.4 (00:00) 21.9 6.39 (16:30) 4.17 (23:59) 0 0 0 0 0
14-05-2019 28.1 (17:00) 16.7 (00:00) 22.4 11.39 (15:20) 7.22 (15:20) 0 0 0 0 0
13-05-2019 28.7 (17:00) 14 (00:00) 21.4 11.39 (23:30) 6.67 (21:50) 0 0 0 0 0
12-05-2019 29.2 (16:40) 17.6 (00:00) 23.4 12.78 (11:00) 7.78 (11:00) 0 0 0 0 0
11-05-2019 33 (17:10) 12.2 (00:00) 22.6 6.39 (18:10) 3.61 (18:10) 0 0 0 0 0
26-04-2019 20.6 (16:30) 5.3 (00:00) 13 10.28 (15:50) 6.39 (17:30) 0 0 0 0 0
09-05-2019 23.4 (16:30) 13.7 (00:00) 18.5 4.72 (19:40) 2.5 (19:30) 0 0 0 0 0
08-05-2019 22.6 (16:10) 11.7 (00:00) 17.2 8.89 (16:50) 4.72 (16:20) 0 0 0 0 0
07-05-2019 26.2 (18:00) 8.2 (00:00) 17.2 6.11 (19:00) 3.61 (19:20) 0 0 0 0 0
06-05-2019 24.6 (16:50) 10.4 (00:00) 17.5 7.22 (16:50) 3.89 (18:20) 0 0 0 0 0
05-05-2019 23.5 (15:50) 12.9 (00:00) 18.2 6.39 (17:00) 3.33 (16:00) 0 0 0 0 0
04-05-2019 22.7 (17:40) 13.2 (00:00) 18 5.83 (18:10) 3.33 (18:10) 0 0 0 0 0
03-05-2019 26.2 (16:20) 12 (00:00) 19.1 7.78 (18:30) 4.17 (18:20) 0 0 0 0 0
02-05-2019 26.1 (14:10) 11.6 (07:50) 18.9 8.61 (19:40) 5.56 (16:20) 0 0 0 0 0
01-05-2019 26.4 (15:30) 12 (00:00) 19.2 7.78 (16:40) 5 (17:20) 0 0 0 0 0
30-04-2019 27.6 (17:40) 10.2 (00:00) 18.9 4.44 (14:10) 2.78 (18:00) 0 0 0 0 0
29-04-2019 25.3 (15:30) 9.9 (00:00) 17.6 7.5 (14:10) 4.72 (13:10) 0 0 0 0 0
28-04-2019 25.7 (14:50) 9.6 (00:00) 17.7 9.17 (15:30) 5.28 (18:50) 0 0 0 0 0
27-04-2019 24.7 (16:30) 7.6 (00:00) 16.2 8.33 (15:20) 6.11 (19:20) 0 0 0 0 0

Gráficas

Temp. máximas Temp. mínimas Temp. medias Precipitaciones Rachas de viento máximas Velocidades máximas media en intervalos de 10 minutos

Datos horarios

Fecha y hora oficial Temperatura (ºC) Velocidad del viento (km/h) Dirección del viento Racha (km/h) Dirección de racha Precipitación (mm) Presión (hPa) Tendencia (hPa) Humedad (%)
2019-05-25 23:00:00 18.6 15 Este 27 Este 0 -- -- 70
2019-05-25 22:00:00 20 12 Este 18 Sudeste 0 -- -- 64
2019-05-25 21:00:00 22.4 6 Sur 21 Sudoeste 0 -- -- 55
2019-05-25 20:00:00 24.2 15 Sur 23 Sur 0 -- -- 51
2019-05-25 19:00:00 26.1 15 Sur 30 Sur 0 -- -- 47
2019-05-25 18:00:00 28.6 11 Noroeste 30 Noroeste 0 -- -- 27
2019-05-25 17:00:00 28.3 15 Norte 33 Norte 0 -- -- 28
2019-05-25 16:00:00 27.7 17 Norte 29 Norte 0 -- -- 30
2019-05-25 15:00:00 27.5 13 Norte 36 Norte 0 -- -- 29
2019-05-25 14:00:00 25.3 7 Sudoeste 18 Oeste 0 -- -- 47
2019-05-25 13:00:00 24.7 6 Noroeste 15 Sudoeste 0 -- -- 50
2019-05-25 12:00:00 22.8 3 Oeste 11 Sudoeste 0 -- -- 51
2019-05-25 11:00:00 21 5 Norte 11 Noroeste 0 -- -- 55
2019-05-25 10:00:00 19.1 4 Oeste 9 Norte 0 -- -- 60
2019-05-25 09:00:00 15.9 3 Norte 5 Noroeste 0 -- -- 68
2019-05-25 08:00:00 13.6 3 Este 12 Este 0 -- -- 81
2019-05-25 07:00:00 13.3 5 Este 12 Este 0 -- -- 78
2019-05-25 06:00:00 14.5 0 Calma 18 Este 0 -- -- 71
2019-05-25 05:00:00 16.2 12 Sudeste 26 Este 0 -- -- 66
2019-05-25 04:00:00 17.7 14 Este 27 Sudeste 0 -- -- 57
2019-05-25 03:00:00 15.5 10 Sudeste 20 Este 0 -- -- 61
2019-05-25 02:00:00 15.2 6 Sudeste 14 Sudeste 0 -- -- 68
2019-05-25 01:00:00 15.5 0 Calma 13 Este 0 -- -- 69
2019-05-25 00:00:00 16.7 3 Nordeste 13 Este 0 -- -- 66
2019-05-24 23:00:00 16.9 6 Sudeste 10 Sudeste 0 -- -- 66
2019-05-24 22:00:00 19.2 2 Este 6 Noroeste 0 -- -- 59
2019-05-24 21:00:00 21.8 4 Noroeste 16 Oeste 0 -- -- 50
2019-05-24 20:00:00 23.7 10 Sudoeste 25 Oeste 0 -- -- 43
2019-05-24 19:00:00 25.2 11 Sudoeste 25 Sudoeste 0 -- -- 41
2019-05-24 18:00:00 26 15 Oeste 32 Oeste 0 -- -- 41
2019-05-24 17:00:00 26.9 14 Noroeste 26 Noroeste 0 -- -- 32
2019-05-24 16:00:00 26.4 11 Noroeste 24 Norte 0 -- -- 29
2019-05-24 15:00:00 25.8 8 Sudoeste 21 Oeste 0 -- -- 32
2019-05-24 14:00:00 24.4 9 Oeste 18 Oeste 0 -- -- 37
2019-05-24 13:00:00 23.5 10 Oeste 19 Oeste 0 -- -- 43
2019-05-24 12:00:00 22 10 Noroeste 20 Noroeste 0 -- -- 57
2019-05-24 11:00:00 21.2 5 Noroeste 10 Noroeste 0 -- -- 55
2019-05-24 10:00:00 17.3 2 Noroeste 7 Norte 0 -- -- 66
2019-05-24 09:00:00 14.5 3 Oeste 12 Sudeste 0 -- -- 74
2019-05-24 08:00:00 13.2 3 Este 8 Nordeste 0 -- -- 73
2019-05-24 07:00:00 13.5 2 Este 8 Este 0 -- -- 71
2019-05-24 06:00:00 13.7 3 Norte 6 Norte 0 -- -- 71
2019-05-24 05:00:00 13.9 0 Calma 8 Este 0 -- -- 70
2019-05-24 04:00:00 14.8 7 Este 9 Este 0 -- -- 65
2019-05-24 03:00:00 15.8 2 Sudeste 7 Este 0 -- -- 64
2019-05-24 02:00:00 16.9 2 Nordeste 10 Sudeste 0 -- -- 60
2019-05-24 01:00:00 18 7 Este 11 Este 0 -- -- 55
2019-05-24 00:00:00 18.7 0 Calma 12 Este 0 -- -- 53
2019-05-23 23:00:00 20.7 5 Este 12 Sudeste 0 -- -- 46
2019-05-23 22:00:00 22.2 8 Sudeste 12 Este 0 -- -- 43
2019-05-23 21:00:00 25.1 4 Sur 14 Sur 0 -- -- 36
2019-05-23 20:00:00 27.6 10 Sur 23 Sur 0 -- -- 30
2019-05-23 19:00:00 29.7 13 Sudoeste 22 Sudoeste 0 -- -- 26
2019-05-23 18:00:00 30.6 10 Sudoeste 22 Sudoeste 0 -- -- 28
2019-05-23 17:00:00 30.7 12 Sudoeste 22 Oeste 0 -- -- 27
2019-05-23 16:00:00 30.2 7 Oeste 26 Sudoeste 0 -- -- 28
2019-05-23 15:00:00 29.7 5 Oeste 16 Sudoeste 0 -- -- 32
2019-05-23 14:00:00 28.6 9 Noroeste 19 Oeste 0 -- -- 31
2019-05-23 13:00:00 27.8 7 Noroeste 14 Sudoeste 0 -- -- 33
2019-05-23 12:00:00 25.8 5 Noroeste 10 Sudoeste 0 -- -- 36
2019-05-23 11:00:00 23.9 4 Sur 10 Sur 0 -- -- 42
2019-05-23 10:00:00 20.7 4 Sudoeste 6 Sudoeste 0 -- -- 53
2019-05-23 09:00:00 16.9 0 Calma 4 Sudeste 0 -- -- 69
2019-05-23 08:00:00 13 3 Este 11 Este 0 -- -- 80
2019-05-23 07:00:00 13.2 3 Sudeste 9 Sudeste 0 -- -- 78
2019-05-23 06:00:00 13 4 Sudeste 9 Este 0 -- -- 82
2019-05-23 05:00:00 13.3 6 Sudeste 10 Sudeste 0 -- -- 82
2019-05-23 04:00:00 14.1 5 Este 8 Este 0 -- -- 81
2019-05-23 03:00:00 14.8 0 Calma 8 Sudeste 0 -- -- 78
2019-05-23 02:00:00 15.3 2 Sudeste 10 Nordeste 0 -- -- 76
2019-05-23 01:00:00 16.1 2 Este 7 Este 0 -- -- 72
2019-05-23 00:00:00 16.7 2 Este 10 Sudeste 0 -- -- 70
2019-05-22 23:00:00 18.5 0 Calma 6 Sur 0 -- -- 63
2019-05-22 22:00:00 20.8 3 Sur 12 Sudoeste 0 -- -- 56
2019-05-22 21:00:00 24.1 7 Sudoeste 19 Sur 0 -- -- 47
2019-05-22 20:00:00 26.8 12 Sur 18 Sudoeste 0 -- -- 41
2019-05-22 19:00:00 27.4 13 Sur 24 Sur 0 -- -- 39
2019-05-22 18:00:00 28.1 9 Sur 21 Sur 0 -- -- 39
2019-05-22 17:00:00 26.9 12 Sur 26 Sur 0 -- -- 42
2019-05-22 16:00:00 28.1 8 Oeste 26 Oeste 0 -- -- 40
2019-05-22 15:00:00 27.8 8 Norte 18 Norte 0 -- -- 39
2019-05-22 14:00:00 27.1 8 Oeste 16 Sur 0 -- -- 44
2019-05-22 13:00:00 25.6 3 Oeste 12 Sudoeste 0 -- -- 43
2019-05-22 12:00:00 23.8 7 Sudoeste 13 Sudoeste 0 -- -- 45
2019-05-22 11:00:00 22 4 Oeste 9 Oeste 0 -- -- 52
2019-05-22 10:00:00 19.3 3 Oeste 5 Sudoeste 0 -- -- 66
2019-05-22 09:00:00 15.6 2 Sudeste 8 Sudeste 0 -- -- 74
2019-05-22 08:00:00 11.8 2 Este 6 Este 0 -- -- 84
2019-05-22 07:00:00 11.5 0 Calma 6 Este 0 -- -- 84
2019-05-22 06:00:00 11.9 0 Calma 9 Este 0 -- -- 82
2019-05-22 05:00:00 12.8 2 Este 15 Este 0 -- -- 79
2019-05-22 04:00:00 12.1 3 Este 12 Este 0 -- -- 82
2019-05-22 03:00:00 12.2 5 Sudeste 8 Sudeste 0 -- -- 81
2019-05-22 02:00:00 13.1 4 Este 10 Este 0 -- -- 78
2019-05-22 01:00:00 14.5 6 Este 9 Este 0 -- -- 73
2019-05-22 00:00:00 15.8 5 Este 6 Este 0 -- -- 70
2019-05-21 23:00:00 17.4 2 Noroeste 6 Sudoeste 0 -- -- 62
2019-05-21 22:00:00 19.4 0 Calma 12 Sudoeste 0 -- -- 54
2019-05-21 21:00:00 22.4 6 Sudoeste 18 Sudoeste 0 -- -- 46
2019-05-21 20:00:00 24 12 Sudoeste 25 Oeste 0 -- -- 42
2019-05-21 19:00:00 25 11 Oeste 27 Noroeste 0 -- -- 40
2019-05-21 18:00:00 25.5 10 Noroeste 28 Oeste 0 -- -- 39
2019-05-21 17:00:00 26 11 Oeste 30 Oeste 0 -- -- 40
2019-05-21 16:00:00 25.9 6 Oeste 21 Oeste 0 -- -- 35
2019-05-21 15:00:00 25.2 6 Oeste 26 Oeste 0 -- -- 40
2019-05-21 14:00:00 24.1 12 Noroeste 21 Oeste 0 -- -- 41
2019-05-21 13:00:00 23.2 7 Noroeste 19 Oeste 0 -- -- 45
2019-05-21 12:00:00 22.4 8 Noroeste 17 Oeste 0 -- -- 52
2019-05-21 11:00:00 19.9 4 Oeste 8 Noroeste 0 -- -- 58
2019-05-21 10:00:00 17.3 3 Oeste 6 Noroeste 0 -- -- 66
2019-05-21 09:00:00 13.5 0 Calma 2 Este 0 -- -- 76
2019-05-21 08:00:00 9.9 0 Calma 8 Este 0 -- -- 85
2019-05-21 07:00:00 9.7 0 Calma 4 Este 0 -- -- 84
2019-05-21 06:00:00 10.2 2 Este 5 Sudeste 0 -- -- 81
2019-05-21 05:00:00 10.6 3 Sudeste 6 Sudeste 0 -- -- 77
2019-05-21 04:00:00 11.5 4 Este 6 Este 0 -- -- 72
2019-05-21 03:00:00 12.5 0 Calma 9 Este 0 -- -- 67
2019-05-21 02:00:00 13.8 3 Noroeste 21 Este 0 -- -- 64
2019-05-21 01:00:00 15.1 13 Este 21 Este 0 -- -- 59
2019-05-21 00:00:00 13.9 7 Sudeste 12 Sudeste 0 -- -- 67
2019-05-20 23:00:00 15.7 0 Calma 6 Oeste 0 -- -- 61
2019-05-20 22:00:00 17.6 2 Oeste 14 Sudoeste 0 -- -- 49
2019-05-20 21:00:00 21.2 9 Oeste 20 Oeste 0 -- -- 38
2019-05-20 20:00:00 23.2 12 Oeste 26 Sudoeste 0 -- -- 33
2019-05-20 19:00:00 24.3 12 Oeste 26 Sudoeste 0 -- -- 31
2019-05-20 18:00:00 24.8 15 Oeste 32 Sudoeste 0 -- -- 31
2019-05-20 17:00:00 25.7 10 Oeste 22 Norte 0 -- -- 32
2019-05-20 16:00:00 24.7 10 Noroeste 22 Sur 0 -- -- 34
2019-05-20 15:00:00 23.7 10 Noroeste 21 Oeste 0 -- -- 40
2019-05-20 14:00:00 23.1 11 Noroeste 23 Noroeste 0 -- -- 44
2019-05-20 13:00:00 22.8 7 Oeste 22 Sudoeste 0 -- -- 50
2019-05-20 12:00:00 21.8 9 Noroeste 17 Oeste 0 -- -- 46
2019-05-20 11:00:00 19.7 4 Oeste 9 Noroeste 0 -- -- 64
2019-05-20 10:00:00 17.1 3 Oeste 6 Oeste 0 -- -- 76
2019-05-20 09:00:00 14.6 0 Calma 7 Sudeste 0 -- -- 82
2019-05-20 08:00:00 11.4 3 Este 8 Este 0 -- -- 91
2019-05-20 07:00:00 11.5 6 Este 10 Sudeste 0 -- -- 92
2019-05-20 06:00:00 11.6 8 Este 12 Sudeste 0 -- -- 90
2019-05-20 05:00:00 12.6 6 Sudeste 10 Sudeste 0 -- -- 88
2019-05-20 04:00:00 14.2 6 Sudeste 11 Este 0 -- -- 82
2019-05-20 03:00:00 14.8 7 Este 13 Este 0 -- -- 81
2019-05-20 02:00:00 14.8 7 Sudeste 16 Sudeste 0 -- -- 81
2019-05-20 01:00:00 15.4 9 Sudeste 15 Sudeste 0 -- -- 79
2019-05-20 00:00:00 15.2 5 Sudeste 9 Sudeste 0 -- -- 80
2019-05-19 23:00:00 15.6 3 Sudeste 11 Sudoeste 0 -- -- 78
2019-05-19 22:00:00 16.3 3 Oeste 13 Oeste 0 -- -- 72
2019-05-19 21:00:00 17.5 9 Oeste 22 Sudoeste 0 -- -- 67
2019-05-19 20:00:00 19.3 11 Oeste 25 Sudoeste 0 -- -- 62
2019-05-19 19:00:00 20.8 14 Oeste 31 Sudoeste 0 -- -- 50
2019-05-19 18:00:00 21.8 17 Sudoeste 30 Sudoeste 0 -- -- 47
2019-05-19 17:00:00 21.9 18 Sudoeste 38 Sudoeste 0 -- -- 43
2019-05-19 16:00:00 22.2 15 Noroeste 28 Noroeste 0 -- -- 37
2019-05-19 15:00:00 21.6 14 Noroeste 27 Noroeste 0 -- -- 31
2019-05-19 14:00:00 20.5 9 Oeste 23 Noroeste 0 -- -- 34
2019-05-19 13:00:00 19.3 9 Oeste 23 Sudoeste 0 -- -- 41
2019-05-19 12:00:00 17.6 8 Noroeste 17 Noroeste 0 -- -- 50
2019-05-19 11:00:00 16 6 Noroeste 15 Noroeste 0 -- -- 58
2019-05-19 10:00:00 14.5 4 Noroeste 9 Oeste 0 -- -- 62
2019-05-19 09:00:00 13.1 2 Oeste 6 Este 0 -- -- 69
2019-05-19 08:00:00 10.4 0 Calma 6 Norte 0 -- -- 82
2019-05-19 07:00:00 10.7 0 Calma 4 Sur 0 -- -- 83
2019-05-19 06:00:00 10.9 0 Calma 4 Oeste 0 -- -- 85
2019-05-19 05:00:00 10.9 0 Calma 4 Este 0 -- -- 86
2019-05-19 04:00:00 11.1 2 Norte 5 Este 0 -- -- 87
2019-05-19 03:00:00 10.9 3 Este 5 Sudeste 0 -- -- 88
2019-05-19 02:00:00 11.2 0 Calma 8 Este 0 -- -- 86
2019-05-19 01:00:00 12 5 Este 14 Este 0 -- -- 83
2019-05-19 00:00:00 12.9 6 Este 13 Sudeste 0 -- -- 79
2019-05-18 23:00:00 13.5 6 Sudeste 10 Sudeste 0 -- -- 76
2019-05-18 22:00:00 14.8 5 Sur 15 Sudoeste 0 -- -- 70
2019-05-18 21:00:00 16.3 7 Sudoeste 23 Oeste 0 -- -- 62
2019-05-18 20:00:00 18.4 13 Oeste 29 Sudoeste 0 -- -- 54
2019-05-18 19:00:00 19.4 17 Oeste 39 Noroeste 0 -- -- 47
2019-05-18 18:00:00 20.7 18 Oeste 36 Sudoeste 0 -- -- 39
2019-05-18 17:00:00 21.3 14 Noroeste 35 Noroeste 0 -- -- 33
2019-05-18 16:00:00 20.4 15 Noroeste 35 Noroeste 0 -- -- 34
2019-05-18 15:00:00 19.8 16 Noroeste 34 Oeste 0 -- -- 36
2019-05-18 14:00:00 19.5 11 Noroeste 29 Oeste 0 -- -- 41
2019-05-18 13:00:00 18.3 13 Oeste 30 Oeste 0 -- -- 45
2019-05-18 12:00:00 17 10 Noroeste 23 Noroeste 0 -- -- 50
2019-05-18 11:00:00 15.2 11 Noroeste 22 Noroeste 0 -- -- 55
2019-05-18 10:00:00 13.7 14 Noroeste 22 Noroeste 0 -- -- 59
2019-05-18 09:00:00 11.2 2 Noroeste 8 Norte 0 -- -- 75
2019-05-18 08:00:00 8.9 3 Norte 11 Norte 0 -- -- 80
2019-05-18 07:00:00 9.8 4 Norte 12 Norte 0 -- -- 78
2019-05-18 06:00:00 9.9 0 Calma 4 Sur 0 -- -- 93
2019-05-18 05:00:00 9.8 2 Sudeste 4 Sur 0 -- -- 91
2019-05-18 04:00:00 10.3 0 Calma 4 Este 0 -- -- 89
2019-05-18 03:00:00 11.2 2 Sudeste 8 Este 0 -- -- 85
2019-05-18 02:00:00 12.2 3 Nordeste 9 Este 0 -- -- 82
2019-05-18 01:00:00 13.3 6 Este 12 Este 0 -- -- 78
2019-05-18 00:00:00 14 6 Sudeste 19 Sudeste 0 -- -- 75
2019-05-17 23:00:00 14.1 2 Sur 9 Sudoeste 0 -- -- 75
2019-05-17 22:00:00 15 6 Sur 17 Oeste 0 -- -- 70
2019-05-17 21:00:00 17.4 8 Oeste 27 Sudoeste 0 -- -- 60
2019-05-17 20:00:00 19.5 13 Oeste 31 Oeste 0 -- -- 49
2019-05-17 19:00:00 21 13 Oeste 32 Oeste 0 -- -- 38
2019-05-17 18:00:00 22.2 12 Noroeste 32 Oeste 0 -- -- 34
2019-05-17 17:00:00 21 16 Noroeste 33 Noroeste 0 -- -- 33
2019-05-17 16:00:00 20.6 12 Noroeste 27 Noroeste 0 -- -- 36
2019-05-17 15:00:00 19.4 13 Oeste 27 Noroeste 0 -- -- 38
2019-05-17 14:00:00 18.9 14 Noroeste 29 Noroeste 0 -- -- 41
2019-05-17 13:00:00 17.9 15 Noroeste 36 Noroeste 0 -- -- 41
2019-05-17 12:00:00 16.7 13 Noroeste 28 Noroeste 0 -- -- 48
2019-05-17 11:00:00 15 14 Noroeste 27 Noroeste 0 -- -- 56
2019-05-17 10:00:00 13.6 15 Noroeste 28 Noroeste 0 -- -- 57
2019-05-17 09:00:00 11.9 16 Noroeste 26 Noroeste 0 -- -- 64
2019-05-17 08:00:00 9.3 3 Norte 10 Norte 0 -- -- 79
2019-05-17 07:00:00 9.3 3 Norte 10 Noroeste 0 -- -- 78
2019-05-17 06:00:00 10.6 3 Norte 15 Norte 0 -- -- 74
2019-05-17 05:00:00 11.6 6 Norte 19 Noroeste 0 -- -- 71
2019-05-17 04:00:00 13.1 9 Noroeste 22 Noroeste 0 -- -- 67
2019-05-17 03:00:00 14.6 10 Noroeste 22 Norte 0 -- -- 69
2019-05-17 02:00:00 15.7 10 Norte 15 Noroeste 0 -- -- 70
2019-05-17 01:00:00 15.9 3 Noroeste 5 Norte 0 -- -- 76
2019-05-17 00:00:00 17.2 0 Calma 9 Norte 0 -- -- 72
2019-05-16 23:00:00 18.1 6 Norte 9 Norte 0 -- -- 67
2019-05-16 22:00:00 19.6 6 Norte 12 Noroeste 0 -- -- 59
2019-05-16 21:00:00 22.9 6 Oeste 20 Sudoeste 0 -- -- 40
2019-05-16 20:00:00 25.4 10 Oeste 24 Sudoeste 0 -- -- 39
2019-05-16 19:00:00 26.3 11 Oeste 27 Sudoeste 0 -- -- 36
2019-05-16 18:00:00 26.4 16 Sudoeste 26 Sudoeste 0 -- -- 33
2019-05-16 17:00:00 27.2 16 Oeste 30 Sudoeste 0 -- -- 34
2019-05-16 16:00:00 27.9 16 Sudoeste 32 Sudoeste 0 -- -- 37
2019-05-16 15:00:00 27.4 19 Sudoeste 32 Sudoeste 0 -- -- 37
2019-05-16 14:00:00 27.6 12 Sudoeste 24 Sur 0 -- -- 40
2019-05-16 13:00:00 26.6 14 Sur 26 Sudeste 0 -- -- 41
2019-05-16 12:00:00 25.5 16 Sudeste 28 Sur 0 -- -- 46
2019-05-16 11:00:00 24.3 13 Sur 27 Sudeste 0 -- -- 49
2019-05-16 10:00:00 22.9 12 Sudeste 24 Sudeste 0 -- -- 48
2019-05-16 09:00:00 16.6 5 Sudoeste 15 Sudeste 0 -- -- 60
2019-05-16 08:00:00 13.8 5 Este 6 Sudeste 0 -- -- 64
2019-05-16 07:00:00 13.8 4 Este 8 Este 0 -- -- 63
2019-05-16 06:00:00 15 0 Calma 9 Este 0 -- -- 60
2019-05-16 05:00:00 15.2 0 Calma 4 Sudeste 0 -- -- 62
2019-05-16 04:00:00 15.4 0 Calma 5 Noroeste 0 -- -- 61
2019-05-16 03:00:00 16.6 0 Calma 8 Este 0 -- -- 59
2019-05-16 02:00:00 17.5 2 Este 17 Este 0 -- -- 55
2019-05-16 01:00:00 20.8 3 Noroeste 26 Sudeste 0 -- -- 48
2019-05-16 00:00:00 21.1 15 Este 22 Sudeste 0 -- -- 48
2019-05-15 23:00:00 20.9 9 Este 13 Este 0 -- -- 54
2019-05-15 22:00:00 24 3 Sur 9 Oeste 0 -- -- 47
2019-05-15 21:00:00 28.6 5 Sudoeste 18 Oeste 0 -- -- 35
2019-05-15 20:00:00 31.1 9 Oeste 19 Sudoeste 0 -- -- 30
2019-05-15 19:00:00 32 9 Noroeste 16 Noroeste 0 -- -- 27
2019-05-15 18:00:00 32.5 10 Oeste 22 Oeste 0 -- -- 26
2019-05-15 17:00:00 32.1 9 Noroeste 23 Oeste 0 -- -- 26
2019-05-15 16:00:00 32 10 Oeste 21 Sudoeste 0 -- -- 29
2019-05-15 15:00:00 31.2 9 Oeste 18 Oeste 0 -- -- 30
2019-05-15 14:00:00 29.7 6 Oeste 16 Noroeste 0 -- -- 34
2019-05-15 13:00:00 28.3 6 Oeste 13 Oeste 0 -- -- 34
2019-05-15 12:00:00 26.6 4 Oeste 10 Oeste 0 -- -- 33
2019-05-15 11:00:00 23.2 3 Oeste 6 Noroeste 0 -- -- 39
2019-05-15 10:00:00 19 3 Noroeste 4 Oeste 0 -- -- 57
2019-05-15 09:00:00 15.2 2 Noroeste 6 Este 0 -- -- 62
2019-05-15 08:00:00 11.8 0 Calma 9 Este 0 -- -- 67
2019-05-15 07:00:00 11.5 3 Este 10 Sudeste 0 -- -- 66
2019-05-15 06:00:00 12.3 4 Sudeste 8 Sudeste 0 -- -- 62
2019-05-15 05:00:00 12.4 3 Sudeste 10 Sudeste 0 -- -- 61
2019-05-15 04:00:00 13 4 Este 8 Este 0 -- -- 60
2019-05-15 03:00:00 13.3 0 Calma 10 Sudeste 0 -- -- 61
2019-05-15 02:00:00 14.3 6 Sudeste 12 Sudeste 0 -- -- 58
2019-05-15 01:00:00 16 4 Nordeste 12 Este 0 -- -- 52
2019-05-15 00:00:00 16.7 5 Norte 22 Este 0 -- -- 51
2019-05-14 23:00:00 19.6 9 Sudeste 26 Este 0 -- -- 44
2019-05-14 22:00:00 20.1 12 Este 23 Este 0 -- -- 44
2019-05-14 21:00:00 22.6 14 Este 25 Sur 0 -- -- 37
2019-05-14 20:00:00 24.1 15 Sur 30 Sur 0 -- -- 35
2019-05-14 19:00:00 25.9 18 Sudoeste 33 Sudoeste 0 -- -- 31
2019-05-14 18:00:00 26.5 22 Sudoeste 34 Sudoeste 0 -- -- 31
2019-05-14 17:00:00 28.1 13 Sur 32 Sur 0 -- -- 30
2019-05-14 16:00:00 26.8 21 Sur 41 Sur 0 -- -- 30
2019-05-14 15:00:00 26.5 22 Sur 36 Sur 0 -- -- 27
2019-05-14 14:00:00 26.2 23 Sur 34 Sur 0 -- -- 25
2019-05-14 13:00:00 26.4 18 Sudeste 33 Sudeste 0 -- -- 25
2019-05-14 12:00:00 25.8 17 Sudeste 35 Sudeste 0 -- -- 25
2019-05-14 11:00:00 24 23 Sudeste 36 Este 0 -- -- 25
2019-05-14 10:00:00 22.6 19 Sudeste 31 Sudeste 0 -- -- 27
2019-05-14 09:00:00 21 13 Sudeste 26 Sudeste 0 -- -- 31
2019-05-14 08:00:00 18.8 14 Sudeste 31 Sudeste 0 -- -- 32
2019-05-14 07:00:00 18.9 16 Sudeste 35 Este 0 -- -- 31
2019-05-14 06:00:00 19.1 18 Este 34 Este 0 -- -- 31
2019-05-14 05:00:00 19.1 15 Sudeste 27 Este 0 -- -- 35
2019-05-14 04:00:00 19 10 Sudeste 30 Este 0 -- -- 44
2019-05-14 03:00:00 19.1 15 Sudeste 33 Este 0 -- -- 46
2019-05-14 02:00:00 19.2 15 Sudeste 39 Este 0 -- -- 48
2019-05-14 01:00:00 17.7 20 Este 36 Este 0 -- -- 53
2019-05-14 00:00:00 17.2 17 Sudeste 41 Este 0 -- -- 56
2019-05-13 23:00:00 18.3 15 Este 40 Este 0 -- -- 55
2019-05-13 22:00:00 19.9 24 Sudeste 39 Este 0 -- -- 55
2019-05-13 21:00:00 22.8 21 Este 33 Este 0 -- -- 49
2019-05-13 20:00:00 25.8 18 Sudeste 28 Este 0 -- -- 44
2019-05-13 19:00:00 27.8 11 Sur 23 Sur 0 -- -- 40
2019-05-13 18:00:00 28.5 14 Sur 26 Sur 0 -- -- 38
2019-05-13 17:00:00 28.7 16 Sur 27 Sudoeste 0 -- -- 38
2019-05-13 16:00:00 28.1 18 Sur 32 Sur 0 -- -- 38
2019-05-13 15:00:00 27.5 19 Sur 33 Sur 0 -- -- 36
2019-05-13 14:00:00 27.3 19 Sur 30 Sudoeste 0 -- -- 37
2019-05-13 13:00:00 27.9 17 Sudoeste 27 Sudoeste 0 -- -- 36
2019-05-13 12:00:00 27.2 6 Sur 19 Este 0 -- -- 38
2019-05-13 11:00:00 25.7 9 Este 21 Este 0 -- -- 41
2019-05-13 10:00:00 22.2 8 Sur 19 Sudeste 0 -- -- 49
2019-05-13 09:00:00 19.3 10 Sudeste 18 Este 0 -- -- 53
2019-05-13 08:00:00 14.8 2 Noroeste 20 Sudeste 0 -- -- 65
2019-05-13 07:00:00 14.3 10 Sudeste 20 Sudeste 0 -- -- 64
2019-05-13 06:00:00 14 11 Sudeste 17 Sudeste 0 -- -- 67
2019-05-13 05:00:00 15.5 6 Sudeste 15 Sudeste 0 -- -- 61
2019-05-13 04:00:00 16.3 5 Este 19 Sudeste 0 -- -- 56
2019-05-13 03:00:00 16.4 6 Sudeste 23 Este 0 -- -- 57
2019-05-13 02:00:00 16.5 12 Sur 16 Sur 0 -- -- 56
2019-05-13 01:00:00 16.7 11 Sudeste 17 Sudeste 0 -- -- 57
2019-05-13 00:00:00 17.6 4 Sur 19 Este 0 -- -- 56
2019-05-12 23:00:00 19.9 7 Este 25 Este 0 -- -- 48
2019-05-12 22:00:00 21.1 9 Este 17 Sudeste 0 -- -- 44
2019-05-12 21:00:00 23.3 6 Sur 28 Sur 0 -- -- 43
2019-05-12 20:00:00 25.7 13 Sur 22 Sur 0 -- -- 37
2019-05-12 19:00:00 28.8 8 Sur 24 Sur 0 -- -- 32
2019-05-12 18:00:00 28.6 15 Sur 36 Sudeste 0 -- -- 32
2019-05-12 17:00:00 29.1 18 Sur 31 Sur 0 -- -- 33
2019-05-12 16:00:00 29 18 Sudeste 36 Sudeste 0 -- -- 32
2019-05-12 15:00:00 28.4 23 Sur 39 Sudeste 0 -- -- 31
2019-05-12 14:00:00 28.2 22 Sudeste 38 Sudeste 0 -- -- 34
2019-05-12 13:00:00 27.4 26 Sudeste 39 Sudeste 0 -- -- 37
2019-05-12 12:00:00 26.8 25 Sudeste 41 Sudeste 0 -- -- 36
2019-05-12 11:00:00 25.8 28 Sudeste 46 Sudeste 0 -- -- 36
2019-05-12 10:00:00 24.7 23 Sudeste 38 Sudeste 0 -- -- 40
2019-05-12 09:00:00 23.4 16 Sudeste 35 Sudeste 0 -- -- 43
2019-05-12 08:00:00 21 12 Sudeste 20 Sudeste 0 -- -- 51
2019-05-12 07:00:00 20.5 9 Sudeste 17 Sudoeste 0 -- -- 51
2019-05-12 06:00:00 20.6 9 Sur 18 Sur 0 -- -- 51
2019-05-12 05:00:00 20.9 13 Sur 22 Sur 0 -- -- 50
2019-05-12 04:00:00 19 8 Sudeste 14 Sudeste 0 -- -- 57
2019-05-12 03:00:00 18.9 11 Sudeste 18 Sudeste 0 -- -- 61
2019-05-12 02:00:00 17.9 11 Sudeste 16 Sudeste 0 -- -- 71
2019-05-12 01:00:00 19.3 14 Sudeste 18 Sudeste 0 -- -- 67
2019-05-12 00:00:00 19.1 5 Sudeste 9 Sudeste 0 -- -- 69
2019-05-11 23:00:00 21.5 4 Sudeste 13 Este 0 -- -- 62
2019-05-11 22:00:00 24.7 5 Este 19 Este 0 -- -- 50
2019-05-11 21:00:00 27.6 9 Este 18 Este 0 -- -- 43
2019-05-11 20:00:00 29.9 12 Sur 18 Sur 0 -- -- 38
2019-05-11 19:00:00 31.2 12 Sur 23 Sudoeste 0 -- -- 33
2019-05-11 18:00:00 32.9 10 Oeste 21 Oeste 0 -- -- 27
2019-05-11 17:00:00 32.8 6 Noroeste 14 Sudoeste 0 -- -- 26
2019-05-11 16:00:00 32 6 Noroeste 12 Oeste 0 -- -- 25
2019-05-11 15:00:00 31.8 5 Oeste 12 Oeste 0 -- -- 27
2019-05-11 14:00:00 30.6 5 Noroeste 13 Noroeste 0 -- -- 30
2019-05-11 13:00:00 29.1 4 Noroeste 10 Oeste 0 -- -- 32
2019-05-11 12:00:00 26.6 3 Oeste 8 Oeste 0 -- -- 47
2019-05-11 11:00:00 23.4 2 Oeste 5 Noroeste 0 -- -- 60
2019-05-11 10:00:00 19.2 3 Noroeste 6 Noroeste 0 -- -- 76
2019-05-11 09:00:00 16.1 0 Calma 5 Nordeste 0 -- -- 81
2019-05-11 08:00:00 12.2 3 Este 9 Este 0 -- -- 89
2019-05-11 07:00:00 12.9 5 Este 12 Este 0 -- -- 88
2019-05-11 06:00:00 13.5 9 Este 12 Este 0 -- -- 86
2019-05-11 05:00:00 13.8 3 Nordeste 11 Este 0 -- -- 84
2019-05-11 04:00:00 14.1 7 Sudeste 13 Sudeste 0 -- -- 83
2019-05-11 03:00:00 14.5 6 Este 11 Este 0 -- -- 79
2019-05-11 02:00:00 15.6 4 Sudeste 6 Sudeste 0 -- -- 75
2019-05-11 01:00:00 16.2 6 Este 12 Este 0 -- -- 75
2019-05-11 00:00:00 17.6 0 Calma 9 Este 0 -- -- 70
2019-05-10 23:00:00 19.5 5 Este 9 Este 0 -- -- 67
2019-05-10 22:00:00 21.7 2 Norte 13 Noroeste 0 -- -- 59
2019-05-10 21:00:00 25.1 6 Norte 13 Noroeste 0 -- -- 42
2019-05-10 20:00:00 27.2 7 Noroeste 21 Noroeste 0 -- -- 38
2019-05-10 19:00:00 27.9 12 Noroeste 21 Noroeste 0 -- -- 39
2019-05-10 18:00:00 28 13 Noroeste 26 Norte 0 -- -- 39
2019-05-10 17:00:00 28.1 10 Noroeste 24 Norte 0 -- -- 43
2019-05-10 16:00:00 27.6 12 Norte 24 Noroeste 0 -- -- 47
2019-05-10 15:00:00 27.2 12 Oeste 23 Noroeste 0 -- -- 48
2019-05-10 14:00:00 25.9 11 Noroeste 22 Oeste 0 -- -- 53
2019-05-10 13:00:00 25.3 8 Noroeste 15 Noroeste 0 -- -- 58
2019-05-10 12:00:00 22.5 5 Oeste 11 Noroeste 0 -- -- 68
2019-05-10 11:00:00 19.8 5 Sudoeste 10 Sudoeste 0 -- -- 76
2019-05-10 10:00:00 17.3 0 Calma 4 Noroeste 0 -- -- 84
2019-05-10 09:00:00 13.7 0 Calma 3 Noroeste 0 -- -- 94
2019-05-10 08:00:00 11.7 4 Este 10 Este 0 -- -- 96
2019-05-10 07:00:00 11.1 0 Calma 8 Este 0 -- -- 95
2019-05-10 06:00:00 11.6 6 Este 9 Sudeste 0 -- -- 95
2019-05-10 05:00:00 12.1 3 Este 6 Este 0 -- -- 95
2019-05-10 04:00:00 12.3 2 Nordeste 9 Este 0 -- -- 94
2019-05-10 03:00:00 12.5 5 Sudeste 8 Sudeste 0 -- -- 92
2019-05-10 02:00:00 13.7 4 Este 6 Este 0 -- -- 92
2019-05-10 01:00:00 14.1 4 Noroeste 10 Norte 0 -- -- 91
2019-05-10 00:00:00 14.7 2 Noroeste 8 Noroeste 0 -- -- 87
2019-05-09 23:00:00 16.1 4 Noroeste 10 Noroeste 0 -- -- 84
2019-05-09 22:00:00 17.5 4 Noroeste 13 Noroeste 0 -- -- 78
2019-05-09 21:00:00 19.6 4 Noroeste 15 Noroeste 0 -- -- 71
2019-05-09 20:00:00 22.1 9 Noroeste 17 Noroeste 0 -- -- 63
2019-05-09 19:00:00 22.5 7 Noroeste 14 Oeste 0 -- -- 62
2019-05-09 18:00:00 22.4 5 Noroeste 12 Noroeste 0 -- -- 61
2019-05-09 17:00:00 22.4 5 Noroeste 17 Sudoeste 0 -- -- 62
2019-05-09 16:00:00 22.5 7 Oeste 15 Oeste 0 -- -- 61
2019-05-09 15:00:00 20.9 4 Oeste 11 Oeste 0 -- -- 72
2019-05-09 14:00:00 19.1 6 Oeste 13 Oeste 0 -- -- 79
2019-05-09 13:00:00 17.9 7 Noroeste 14 Noroeste 0 -- -- 83
2019-05-09 12:00:00 16.8 5 Noroeste 10 Norte 0 -- -- 86
2019-05-09 11:00:00 16.4 4 Noroeste 10 Oeste 0 -- -- 88
2019-05-09 10:00:00 16.2 4 Noroeste 14 Noroeste 0 -- -- 89
2019-05-09 09:00:00 15.8 4 Noroeste 8 Noroeste 0 -- -- 92
2019-05-09 08:00:00 15.5 2 Noroeste 4 Norte 0 -- -- 92
2019-05-09 07:00:00 15.2 0 Calma 3 Oeste 0 -- -- 93
2019-05-09 06:00:00 15 2 Este 5 Este 0 -- -- 92
2019-05-09 05:00:00 15 2 Este 6 Este 0 -- -- 90
2019-05-09 04:00:00 15.3 4 Este 13 Sudeste 0 -- -- 91
2019-05-09 03:00:00 14.9 6 Este 10 Este 0 -- -- 83
2019-05-09 02:00:00 14.6 3 Este 6 Este 0 -- -- 83
2019-05-09 01:00:00 14.4 2 Oeste 10 Este 0 -- -- 81
2019-05-09 00:00:00 13.7 4 Este 10 Este 0 -- -- 80
2019-05-08 23:00:00 14.8 5 Este 7 Este 0 -- -- 75
2019-05-08 22:00:00 16.4 3 Oeste 11 Sudoeste 0 -- -- 66
2019-05-08 21:00:00 17.8 5 Oeste 18 Sudoeste 0 -- -- 66
2019-05-08 20:00:00 19.9 11 Oeste 23 Oeste 0 -- -- 65
2019-05-08 19:00:00 20.1 9 Oeste 26 Oeste 0 -- -- 62
2019-05-08 18:00:00 21.4 12 Oeste 30 Sudoeste 0 -- -- 60
2019-05-08 17:00:00 21.2 12 Oeste 32 Oeste 0 -- -- 59
2019-05-08 16:00:00 22.3 12 Oeste 27 Oeste 0 -- -- 59
2019-05-08 15:00:00 19.6 11 Oeste 24 Oeste 0 -- -- 71
2019-05-08 14:00:00 19.7 8 Oeste 17 Noroeste 0 -- -- 71
2019-05-08 13:00:00 18.8 4 Oeste 16 Oeste 0 -- -- 75
2019-05-08 12:00:00 17.7 4 Sudoeste 8 Oeste 0 -- -- 80
2019-05-08 11:00:00 16.7 3 Oeste 6 Oeste 0 -- -- 83
2019-05-08 10:00:00 15.6 0 Calma 8 Sudeste 0 -- -- 89
2019-05-08 09:00:00 14.7 6 Sudeste 9 Sudeste 0 -- -- 91
2019-05-08 08:00:00 13.6 4 Sudeste 6 Sudeste 0 -- -- 91
2019-05-08 07:00:00 13.2 4 Este 10 Este 0 -- -- 92
2019-05-08 06:00:00 12.6 2 Sudeste 4 Este 0 -- -- 94
2019-05-08 05:00:00 11.9 0 Calma 8 Este 0 -- -- 92
2019-05-08 04:00:00 11.8 3 Sudeste 6 Sudeste 0 -- -- 90
2019-05-08 03:00:00 12.6 0 Calma 14 Este 0 -- -- 87
2019-05-08 02:00:00 13 6 Este 14 Este 0 -- -- 87
2019-05-08 01:00:00 13.8 7 Sudeste 12 Sudeste 0 -- -- 85
2019-05-08 00:00:00 14.6 3 Sudeste 5 Sudeste 0 -- -- 83
2019-05-07 23:00:00 15.5 3 Noroeste 7 Oeste 0 -- -- 80
2019-05-07 22:00:00 17.2 3 Norte 8 Noroeste 0 -- -- 72
2019-05-07 21:00:00 19.6 5 Noroeste 16 Oeste 0 -- -- 62
2019-05-07 20:00:00 23.3 8 Oeste 22 Oeste 0 -- -- 50
2019-05-07 19:00:00 25.1 12 Oeste 22 Sudoeste 0 -- -- 47
2019-05-07 18:00:00 26.2 6 Oeste 14 Sudoeste 0 -- -- 45
2019-05-07 17:00:00 25.8 5 Oeste 17 Sudoeste 0 -- -- 44
2019-05-07 16:00:00 25.1 6 Oeste 17 Sudoeste 0 -- -- 42
2019-05-07 15:00:00 24.3 8 Sudoeste 16 Sudoeste 0 -- -- 46
2019-05-07 14:00:00 22.7 5 Oeste 17 Oeste 0 -- -- 49
2019-05-07 13:00:00 21.4 6 Oeste 15 Noroeste 0 -- -- 55
2019-05-07 12:00:00 19.8 3 Noroeste 10 Noroeste 0 -- -- 60
2019-05-07 11:00:00 17.2 3 Noroeste 8 Oeste 0 -- -- 69
2019-05-07 10:00:00 13.9 2 Oeste 5 Oeste 0 -- -- 82
2019-05-07 09:00:00 10.4 3 Noroeste 8 Norte 0 -- -- 91
2019-05-07 08:00:00 8.2 4 Sudeste 10 Este 0 -- -- 91
2019-05-07 07:00:00 8.6 6 Este 9 Este 0 -- -- 92
2019-05-07 06:00:00 9 2 Este 9 Este 0 -- -- 92
2019-05-07 05:00:00 9.6 2 Nordeste 12 Este 0 -- -- 92
2019-05-07 04:00:00 10.2 7 Este 11 Este 0 -- -- 94
2019-05-07 03:00:00 10.3 0 Calma 9 Sudeste 0 -- -- 92
2019-05-07 02:00:00 10.6 3 Este 12 Sudeste 0 -- -- 90
2019-05-07 01:00:00 12.6 2 Norte 5 Este 0 -- -- 90
2019-05-07 00:00:00 13.8 4 Norte 7 Noroeste 0 -- -- 87
2019-05-06 23:00:00 15.4 3 Noroeste 8 Noroeste 0 -- -- 81
2019-05-06 22:00:00 16.8 6 Norte 10 Norte 0 -- -- 76
2019-05-06 21:00:00 19.9 3 Oeste 12 Oeste 0 -- -- 66
2019-05-06 20:00:00 22.1 5 Oeste 17 Sudoeste 0 -- -- 60
2019-05-06 19:00:00 22.7 9 Oeste 22 Sudoeste 0 -- -- 60
2019-05-06 18:00:00 23.5 9 Oeste 21 Sudoeste 0 -- -- 57
2019-05-06 17:00:00 24.6 10 Oeste 26 Sudoeste 0 -- -- 55
2019-05-06 16:00:00 23.8 8 Noroeste 20 Sudoeste 0 -- -- 56
2019-05-06 15:00:00 22.9 9 Noroeste 20 Oeste 0 -- -- 60
2019-05-06 14:00:00 21.7 6 Noroeste 13 Noroeste 0 -- -- 62
2019-05-06 13:00:00 20 5 Oeste 16 Norte 0 -- -- 67
2019-05-06 12:00:00 16.8 7 Noroeste 12 Oeste 0 -- -- 76
2019-05-06 11:00:00 14 4 Oeste 8 Sudoeste 0 -- -- 85
2019-05-06 10:00:00 12.2 5 Sudeste 8 Sudeste 0 -- -- 90
2019-05-06 09:00:00 10.7 5 Sudeste 9 Sudeste 0 -- -- 93
2019-05-06 08:00:00 10.4 5 Sudeste 8 Sudeste 0 -- -- 93
2019-05-06 07:00:00 10.6 4 Sudeste 8 Sudeste 0 -- -- 92
2019-05-06 06:00:00 11 3 Sudoeste 7 Sudeste 0 -- -- 93
2019-05-06 05:00:00 11.5 5 Sudeste 9 Este 0 -- -- 90
2019-05-06 04:00:00 11.9 3 Nordeste 6 Sudeste 0 -- -- 93
2019-05-06 03:00:00 11.4 3 Este 4 Este 0 -- -- 94
2019-05-06 02:00:00 11 2 Norte 6 Este 0 -- -- 91
2019-05-06 01:00:00 11.9 0 Calma 6 Norte 0 -- -- 89
2019-05-06 00:00:00 12.9 3 Norte 7 Norte 0 -- -- 87
2019-05-05 23:00:00 14 0 Calma 5 Noroeste 0 -- -- 82
2019-05-05 22:00:00 15.9 2 Oeste 11 Noroeste 0 -- -- 74
2019-05-05 21:00:00 18.4 5 Oeste 13 Noroeste 0 -- -- 65
2019-05-05 20:00:00 20.7 8 Oeste 19 Oeste 0 -- -- 59
2019-05-05 19:00:00 22.1 8 Oeste 22 Sudoeste 0 -- -- 58
2019-05-05 18:00:00 22.5 9 Noroeste 22 Oeste 0 -- -- 57
2019-05-05 17:00:00 23.1 11 Noroeste 23 Oeste 0 -- -- 56
2019-05-05 16:00:00 23.3 12 Oeste 22 Sudoeste 0 -- -- 55
2019-05-05 15:00:00 22.8 6 Noroeste 23 Oeste 0 -- -- 56
2019-05-05 14:00:00 21.8 8 Oeste 17 Oeste 0 -- -- 60
2019-05-05 13:00:00 19.6 5 Noroeste 15 Noroeste 0 -- -- 66
2019-05-05 12:00:00 18.3 6 Noroeste 14 Noroeste 0 -- -- 70
2019-05-05 11:00:00 16.5 5 Noroeste 11 Noroeste 0 -- -- 73
2019-05-05 10:00:00 14.8 3 Noroeste 8 Noroeste 0 -- -- 80
2019-05-05 09:00:00 13.4 3 Sur 6 Noroeste 0 -- -- 83
2019-05-05 08:00:00 13.2 3 Oeste 5 Noroeste 0 -- -- 86
2019-05-05 07:00:00 13.3 2 Noroeste 7 Oeste 0 -- -- 85
2019-05-05 06:00:00 13.7 4 Noroeste 7 Oeste 0 -- -- 89
2019-05-05 05:00:00 13.9 4 Noroeste 7 Oeste 0 -- -- 89
2019-05-05 04:00:00 14 0 Calma 5 Norte 0 -- -- 90
2019-05-05 03:00:00 13.9 0 Calma 6 Noroeste 0 -- -- 90
2019-05-05 02:00:00 14.1 2 Noroeste 7 Norte 0 -- -- 89
2019-05-05 01:00:00 13.9 5 Norte 9 Norte 0 -- -- 90
2019-05-05 00:00:00 14 5 Norte 11 Norte 0 -- -- 89
2019-05-04 23:00:00 14.5 4 Norte 7 Norte 0 -- -- 88
2019-05-04 22:00:00 16 0 Calma 9 Oeste 0 -- -- 82
2019-05-04 21:00:00 18.3 5 Oeste 17 Oeste 0 -- -- 74
2019-05-04 20:00:00 20.1 8 Oeste 18 Sudoeste 0 -- -- 68
2019-05-04 19:00:00 20.6 9 Oeste 21 Oeste 0 -- -- 65
2019-05-04 18:00:00 21.9 11 Sudoeste 20 Oeste 0 -- -- 62
2019-05-04 17:00:00 22.6 9 Sudoeste 19 Sudoeste 0 -- -- 61
2019-05-04 16:00:00 21.1 8 Sudoeste 14 Oeste 0 -- -- 66
2019-05-04 15:00:00 20 8 Sudoeste 14 Sur 0 -- -- 68
2019-05-04 14:00:00 19.5 7 Sudoeste 15 Sudoeste 0 -- -- 71
2019-05-04 13:00:00 18.9 8 Sudoeste 14 Sudoeste 0 -- -- 74
2019-05-04 12:00:00 18.3 7 Sur 13 Sudoeste 0 -- -- 77
2019-05-04 11:00:00 16.7 6 Sudoeste 13 Sudoeste 0 -- -- 85
2019-05-04 10:00:00 16.1 8 Sudeste 17 Este 0 -- -- 84
2019-05-04 09:00:00 15.2 8 Sudeste 13 Sudeste 0 -- -- 89
2019-05-04 08:00:00 14.6 5 Sudeste 11 Sudeste 0 -- -- 92
2019-05-04 07:00:00 14.5 4 Sudeste 7 Sudeste 0 -- -- 92
2019-05-04 06:00:00 14.2 0 Calma 5 Sudeste 0 -- -- 93
2019-05-04 05:00:00 13.8 4 Sudeste 9 Este 0 -- -- 93
2019-05-04 04:00:00 13.9 2 Este 8 Este 0 -- -- 94
2019-05-04 03:00:00 13.4 3 Sudeste 10 Sudeste 0 -- -- 93
2019-05-04 02:00:00 13.4 6 Sudeste 15 Sudeste 0 -- -- 91
2019-05-04 01:00:00 14.2 4 Sudeste 9 Sur 0 -- -- 93
2019-05-04 00:00:00 14.9 2 Sudeste 9 Norte 0 -- -- 91
2019-05-03 23:00:00 15.9 6 Norte 10 Noroeste 0 -- -- 88
2019-05-03 22:00:00 17.8 6 Sur 11 Sudoeste 0 -- -- 80
2019-05-03 21:00:00 20.1 6 Sur 10 Sudoeste 0 -- -- 72
2019-05-03 20:00:00 22.5 7 Oeste 22 Sudoeste 0 -- -- 64
2019-05-03 19:00:00 23.3 11 Oeste 28 Oeste 0 -- -- 62
2019-05-03 18:00:00 24.7 14 Oeste 27 Oeste 0 -- -- 56
2019-05-03 17:00:00 26.1 11 Oeste 22 Sudoeste 0 -- -- 40
2019-05-03 16:00:00 25.8 9 Oeste 19 Sudoeste 0 -- -- 41
2019-05-03 15:00:00 25 7 Sudoeste 16 Oeste 0 -- -- 41
2019-05-03 14:00:00 23.8 11 Sur 20 Sudoeste 0 -- -- 45
2019-05-03 13:00:00 23.1 10 Sudoeste 22 Sudoeste 0 -- -- 46
2019-05-03 12:00:00 22.2 10 Sudoeste 17 Sudoeste 0 -- -- 47
2019-05-03 11:00:00 20.8 7 Este 16 Sudeste 0 -- -- 47
2019-05-03 10:00:00 18.9 6 Este 15 Sudeste 0 -- -- 49
2019-05-03 09:00:00 14.5 2 Nordeste 13 Este 0 -- -- 62
2019-05-03 08:00:00 12.3 7 Este 11 Este 0 -- -- 61
2019-05-03 07:00:00 12.6 8 Sudeste 15 Sudeste 0 -- -- 60
2019-05-03 06:00:00 14.9 12 Este 22 Sudeste 0 -- -- 48
2019-05-03 05:00:00 14.7 6 Sudeste 16 Sudeste 0 -- -- 51
2019-05-03 04:00:00 15.6 3 Sudoeste 9 Sudeste 0 -- -- 48
2019-05-03 03:00:00 16.8 3 Sur 15 Sudeste 0 -- -- 44
2019-05-03 02:00:00 17 5 Sur 15 Sur 0 -- -- 47
2019-05-03 01:00:00 17.4 9 Sur 16 Sudeste 0 -- -- 47
2019-05-03 00:00:00 18.1 10 Sudeste 26 Sudeste 0 -- -- 42
2019-05-02 23:00:00 18.4 15 Sudeste 28 Sudeste 0 -- -- 44
2019-05-02 22:00:00 18.9 17 Este 30 Este 0 -- -- 47
2019-05-02 21:00:00 20.4 15 Este 27 Este 0 -- -- 45
2019-05-02 20:00:00 23.1 5 Sudeste 31 Sur 0 -- -- 38
2019-05-02 19:00:00 25.1 11 Sur 28 Sudeste 0 -- -- 36
2019-05-02 18:00:00 24.4 18 Sur 30 Sur 0 -- -- 41
2019-05-02 17:00:00 24.7 17 Sur 29 Sur 0 -- -- 41
2019-05-02 16:00:00 24.9 15 Sur 26 Sur 0 -- -- 39
2019-05-02 15:00:00 24.3 18 Sur 28 Sur 0 -- -- 38
2019-05-02 14:00:00 25.9 5 Nordeste 12 Nordeste 0 -- -- 44
2019-05-02 13:00:00 23.7 6 Noroeste 15 Norte 0 -- -- 43
2019-05-02 12:00:00 21.6 9 Norte 17 Norte 0 -- -- 54
2019-05-02 11:00:00 19.9 4 Noroeste 9 Norte 0 -- -- 56
2019-05-02 10:00:00 16.1 3 Este 12 Sur 0 -- -- 67
2019-05-02 09:00:00 13.7 0 Calma 12 Este 0 -- -- 74
2019-05-02 08:00:00 11.8 8 Este 13 Este 0 -- -- 75
2019-05-02 07:00:00 11.9 0 Calma 9 Este 0 -- -- 74
2019-05-02 06:00:00 12.1 2 Norte 15 Sudeste 0 -- -- 76
2019-05-02 05:00:00 12.3 10 Sudeste 18 Este 0 -- -- 72
2019-05-02 04:00:00 13.1 6 Este 14 Nordeste 0 -- -- 70
2019-05-02 03:00:00 12.8 5 Nordeste 9 Este 0 -- -- 76
2019-05-02 02:00:00 13.4 4 Sudeste 12 Nordeste 0 -- -- 73
2019-05-02 01:00:00 13.9 3 Norte 8 Sur 0 -- -- 76
2019-05-02 00:00:00 15.1 2 Este 8 Norte 0 -- -- 75
2019-05-01 23:00:00 16.7 9 Sudeste 15 Este 0 -- -- 68
2019-05-01 22:00:00 19 2 Nordeste 24 Este 0 -- -- 62
2019-05-01 21:00:00 21.1 17 Este 24 Este 0 -- -- 54
2019-05-01 20:00:00 23.5 9 Sudoeste 18 Sudoeste 0 -- -- 50
2019-05-01 19:00:00 25.4 8 Sudoeste 25 Sudoeste 0 -- -- 44
2019-05-01 18:00:00 25.6 14 Sudoeste 28 Sudoeste 0 -- -- 45
2019-05-01 17:00:00 26.2 15 Sur 28 Sur 0 -- -- 45
2019-05-01 16:00:00 26.1 17 Sudoeste 24 Sur 0 -- -- 43
2019-05-01 15:00:00 25.9 11 Sudoeste 22 Sur 0 -- -- 44
2019-05-01 14:00:00 25.6 11 Sur 19 Sudoeste 0 -- -- 43
2019-05-01 13:00:00 24.6 7 Noroeste 14 Sudoeste 0 -- -- 45
2019-05-01 12:00:00 23.2 4 Noroeste 9 Sudoeste 0 -- -- 46
2019-05-01 11:00:00 20.7 4 Sur 9 Sudoeste 0 -- -- 54
2019-05-01 10:00:00 17.9 4 Sur 6 Este 0 -- -- 60
2019-05-01 09:00:00 14.4 5 Este 10 Este 0 -- -- 78
2019-05-01 08:00:00 12.3 5 Este 12 Sudeste 0 -- -- 81
2019-05-01 07:00:00 12.1 7 Sudeste 13 Sudeste 0 -- -- 83
2019-05-01 06:00:00 12.4 0 Calma 6 Este 0 -- -- 86
2019-05-01 05:00:00 12.9 0 Calma 9 Nordeste 0 -- -- 85
2019-05-01 04:00:00 13 5 Sudeste 8 Sur 0 -- -- 87
2019-05-01 03:00:00 13.7 3 Sudeste 6 Sudeste 0 -- -- 88
2019-05-01 02:00:00 14.3 2 Este 7 Sudeste 0 -- -- 88
2019-05-01 01:00:00 15.3 0 Calma 10 Este 0 -- -- 85
2019-05-01 00:00:00 16.1 3 Este 8 Sur 0 -- -- 83
2019-04-30 23:00:00 17.9 4 Sudeste 6 Este 0 -- -- 77
2019-04-30 22:00:00 19.6 6 Norte 10 Este 0 -- -- 71
2019-04-30 21:00:00 22.7 6 Sur 13 Sudoeste 0 -- -- 59
2019-04-30 20:00:00 25.6 6 Sudoeste 15 Sur 0 -- -- 53
2019-04-30 19:00:00 27 8 Sudoeste 14 Sudoeste 0 -- -- 47
2019-04-30 18:00:00 27 10 Sur 16 Sur 0 -- -- 44
2019-04-30 17:00:00 27.2 5 Oeste 15 Noroeste 0 -- -- 43
2019-04-30 16:00:00 26.9 3 Nordeste 15 Sudoeste 0 -- -- 47
2019-04-30 15:00:00 26.1 3 Este 16 Oeste 0 -- -- 45
2019-04-30 14:00:00 25.2 6 Oeste 12 Sudoeste 0 -- -- 46
2019-04-30 13:00:00 23.6 7 Oeste 13 Sudoeste 0 -- -- 44
2019-04-30 12:00:00 22.2 7 Sudoeste 14 Oeste 0 -- -- 45
2019-04-30 11:00:00 19.2 4 Noroeste 7 Noroeste 0 -- -- 64
2019-04-30 10:00:00 16.2 3 Noroeste 8 Sur 0 -- -- 69
2019-04-30 09:00:00 13 0 Calma 8 Sudeste 0 -- -- 73
2019-04-30 08:00:00 10.3 0 Calma 10 Sudeste 0 -- -- 84
2019-04-30 07:00:00 10.7 4 Sudeste 8 Sudeste 0 -- -- 82
2019-04-30 06:00:00 10.6 0 Calma 9 Este 0 -- -- 84
2019-04-30 05:00:00 11.5 0 Calma 14 Sudeste 0 -- -- 80
2019-04-30 04:00:00 10.8 9 Sudeste 13 Este 0 -- -- 82
2019-04-30 03:00:00 12 6 Este 14 Este 0 -- -- 77
2019-04-30 02:00:00 12.3 6 Este 9 Este 0 -- -- 76
2019-04-30 01:00:00 13.3 3 Este 12 Sudeste 0 -- -- 72
2019-04-30 00:00:00 14.4 5 Este 22 Sudeste 0 -- -- 66
2019-04-29 23:00:00 15.6 10 Sudeste 19 Sudeste 0 -- -- 61
2019-04-29 22:00:00 17.5 12 Este 21 Este 0 -- -- 55
2019-04-29 21:00:00 19.6 15 Este 26 Este 0 -- -- 48
2019-04-29 20:00:00 22.7 9 Sudeste 20 Sur 0 -- -- 42
2019-04-29 19:00:00 23.3 13 Sudoeste 22 Sur 0 -- -- 40
2019-04-29 18:00:00 24.3 13 Sudoeste 27 Sur 0 -- -- 40
2019-04-29 17:00:00 25.1 17 Sudoeste 27 Sur 0 -- -- 37
2019-04-29 16:00:00 25.2 16 Sudoeste 27 Sur 0 -- -- 35
2019-04-29 15:00:00 24.8 17 Sudoeste 27 Sur 0 -- -- 36
2019-04-29 14:00:00 25.2 9 Sur 26 Sur 0 -- -- 32
2019-04-29 13:00:00 24.3 13 Sur 24 Sur 0 -- -- 34
2019-04-29 12:00:00 22.1 6 Norte 11 Norte 0 -- -- 44
2019-04-29 11:00:00 18.2 3 Noroeste 6 Oeste 0 -- -- 52
2019-04-29 10:00:00 15.5 0 Calma 12 Sudeste 0 -- -- 65
2019-04-29 09:00:00 12 10 Este 16 Este 0 -- -- 63
2019-04-29 08:00:00 10.3 8 Este 12 Este 0 -- -- 64
2019-04-29 07:00:00 10.1 6 Este 13 Este 0 -- -- 64
2019-04-29 06:00:00 10.2 8 Este 14 Sudeste 0 -- -- 64
2019-04-29 05:00:00 10.9 3 Este 11 Este 0 -- -- 61
2019-04-29 04:00:00 12.5 3 Sudeste 13 Norte 0 -- -- 57
2019-04-29 03:00:00 13 6 Norte 14 Sudeste 0 -- -- 51
2019-04-29 02:00:00 13.2 6 Sudeste 15 Sudeste 0 -- -- 55
2019-04-29 01:00:00 13.5 5 Sudeste 14 Este 0 -- -- 54
2019-04-29 00:00:00 13.6 3 Nordeste 8 Norte 0 -- -- 55
2019-04-28 23:00:00 14.3 3 Nordeste 15 Sudeste 0 -- -- 55
2019-04-28 22:00:00 16 10 Sudeste 22 Sudeste 0 -- -- 47
2019-04-28 21:00:00 18.4 13 Sudeste 28 Sur 0 -- -- 42
2019-04-28 20:00:00 20.7 17 Sur 30 Sur 0 -- -- 36
2019-04-28 19:00:00 22.8 19 Sudoeste 29 Sudoeste 0 -- -- 33
2019-04-28 18:00:00 24.5 14 Sudoeste 30 Sur 0 -- -- 30
2019-04-28 17:00:00 24.8 16 Sudoeste 32 Sudoeste 0 -- -- 31
2019-04-28 16:00:00 25.2 15 Sur 33 Sur 0 -- -- 31
2019-04-28 15:00:00 25.6 9 Sur 21 Sur 0 -- -- 29
2019-04-28 14:00:00 24.4 6 Noroeste 13 Noroeste 0 -- -- 37
2019-04-28 13:00:00 22.9 6 Norte 13 Norte 0 -- -- 38
2019-04-28 12:00:00 21.7 7 Norte 13 Noroeste 0 -- -- 40
2019-04-28 11:00:00 19.6 8 Norte 13 Norte 0 -- -- 45
2019-04-28 10:00:00 16.9 6 Norte 10 Norte 0 -- -- 53
2019-04-28 09:00:00 12.4 2 Nordeste 7 Este 0 -- -- 70
2019-04-28 08:00:00 9.6 3 Este 9 Este 0 -- -- 73
2019-04-28 07:00:00 10 0 Calma 10 Sudeste 0 -- -- 71
2019-04-28 06:00:00 10.3 2 Este 12 Este 0 -- -- 72
2019-04-28 05:00:00 10.9 4 Este 10 Sudeste 0 -- -- 69
2019-04-28 04:00:00 11.6 2 Nordeste 8 Sudeste 0 -- -- 66
2019-04-28 03:00:00 12.1 4 Este 10 Este 0 -- -- 68
2019-04-28 02:00:00 12.4 3 Noroeste 8 Este 0 -- -- 66
2019-04-28 01:00:00 13 0 Calma 8 Este 0 -- -- 66
2019-04-28 00:00:00 13.4 2 Nordeste 9 Este 0 -- -- 60
2019-04-27 23:00:00 14.6 3 Nordeste 10 Norte 0 -- -- 56
2019-04-27 22:00:00 17.2 3 Este 21 Este 0 -- -- 45
2019-04-27 21:00:00 19.8 9 Este 28 Sudeste 0 -- -- 39
2019-04-27 20:00:00 21.7 19 Sudeste 30 Sudeste 0 -- -- 36
2019-04-27 19:00:00 23.5 14 Sudeste 27 Sur 0 -- -- 35
2019-04-27 18:00:00 23.5 19 Sur 30 Sur 0 -- -- 37
2019-04-27 17:00:00 24.2 17 Sur 27 Sur 0 -- -- 35
2019-04-27 16:00:00 24.2 13 Sur 30 Sur 0 -- -- 35
2019-04-27 15:00:00 23.9 13 Sur 27 Sur 0 -- -- 38
2019-04-27 14:00:00 23.3 14 Sudoeste 29 Sudoeste 0 -- -- 42
2019-04-27 13:00:00 22.7 6 Oeste 11 Noroeste 0 -- -- 37
2019-04-27 12:00:00 20.8 4 Noroeste 10 Norte 0 -- -- 43
2019-04-27 11:00:00 17.8 5 Noroeste 7 Noroeste 0 -- -- 58
2019-04-27 10:00:00 14.4 0 Calma 4 Sudoeste 0 -- -- 66
2019-04-27 09:00:00 10.3 2 Sudeste 10 Sudeste 0 -- -- 80
2019-04-27 08:00:00 8.3 4 Este 9 Este 0 -- -- 80
2019-04-27 07:00:00 7.7 4 Este 12 Sudeste 0 -- -- 83
2019-04-27 06:00:00 8.3 8 Este 12 Sudeste 0 -- -- 81
2019-04-27 05:00:00 8.7 2 Sudeste 8 Este 0 -- -- 82
2019-04-27 04:00:00 9.4 5 Este 10 Este 0 -- -- 78
2019-04-27 03:00:00 10.1 2 Este 7 Este 0 -- -- 77
2019-04-27 02:00:00 11.6 3 Nordeste 12 Este 0 -- -- 69
2019-04-27 01:00:00 11.8 0 Calma 7 Norte 0 -- -- 70
2019-04-27 00:00:00 12.9 6 Sudeste 12 Sudeste 0 -- -- 64
2019-04-26 23:00:00 13.3 4 Norte 12 Este 0 -- -- 63
2019-04-26 22:00:00 15.1 4 Norte 15 Norte 0 -- -- 58
2019-04-26 21:00:00 17.1 11 Norte 30 Norte 0 -- -- 51
2019-04-26 20:00:00 19.1 13 Norte 30 Norte 0 -- -- 45
2019-04-26 19:00:00 20 15 Norte 34 Norte 0 -- -- 46
2019-04-26 18:00:00 20.1 21 Norte 36 Norte 0 -- -- 45
2019-04-26 17:00:00 20.4 19 Noroeste 33 Noroeste 0 -- -- 45
2019-04-26 16:00:00 20.5 16 Noroeste 37 Noroeste 0 -- -- 45
2019-04-26 15:00:00 20 14 Noroeste 25 Noroeste 0 -- -- 43
2019-04-26 14:00:00 18.9 14 Noroeste 23 Noroeste 0 -- -- 47
2019-04-26 13:00:00 18.1 5 Sudoeste 14 Sudoeste 0 -- -- 50
2019-04-26 12:00:00 16.4 5 Sur 17 Sudoeste 0 -- -- 54
2019-04-26 11:00:00 14.2 4 Sudoeste 13 Noroeste 0 -- -- 69
2019-04-26 10:00:00 10.2 2 Sudoeste 5 Sudoeste 0 -- -- 91
2019-04-26 09:00:00 7.4 0 Calma 8 Sudeste 0 -- -- 97
2019-04-26 08:00:00 5.3 2 Este 11 Este 0 -- -- 94
2019-04-26 07:00:00 5.9 4 Este 9 Este 0 -- -- 93
2019-04-26 06:00:00 6.9 2 Sudeste 4 Sudeste 0 -- -- 94
2019-04-26 05:00:00 7.5 2 Noroeste 5 Norte 0 -- -- 89
2019-04-26 04:00:00 7.5 0 Calma 4 Noroeste 0 -- -- 89
2019-04-26 03:00:00 7.9 0 Calma 2 Sudoeste 0 -- -- 90
2019-04-26 02:00:00 8.6 0 Calma 6 Norte 0 -- -- 89
2019-04-26 01:00:00 9.5 0 Calma 5 Este 0 -- -- 90
2019-04-26 00:00:00 10.7 2 Este 5 Este 0 -- -- 87